Home   Weather   Germany   Herne   Past weeks
Flag for Germany

Past Weather in Herne, North Rhine-Westphalia, Germany — Yesterday and Last 2 Weeks

Currently: 70 °F. Sunny. (Weather station: Dortmund / Wickede, Germany). See more current weather

Past Weather in Herne — Graph

°F

Herne Temperature Yesterday

Maximum temperature yesterday: 77 °F (at 5:50 pm)
Minimum temperature yesterday: 54 °F (at 5:20 am)
Average temperature yesterday: 66 °F

High & Low Weather Summary for the Past Weeks

 TemperatureHumidityPressure
High82 °F (Jul 18, 5:20 pm)100% (Jul 11, 4:50 am)30.27 "Hg (Jul 11, 4:50 am)
Low52 °F (Jul 20, 4:50 am)42% (Jul 23, 5:50 pm)29.74 "Hg (Jul 14, 3:50 pm)
Average65 °F78%30.05 "Hg
* Reported Jul 9 9:20 am — Jul 24 9:50 am, Herne. Weather by CustomWeather, © 2021

Note: Actual official high and low records may vary slightly from our data, if they occured in-between our weather recording intervals... More about our weather records

Herne Weather History for the Previous 24 Hours

Scroll right to see more
 ConditionsComfort  
Time TempWeatherWind HumidityBarometerVisibility
9:50 am
Sat, Jul 24
68 °FSunny.7 mph73%29.83 "Hg10 mi
8:50 am64 °FSunny.6 mph78%29.83 "Hg10 mi
8:20 am64 °FSunny.6 mph78%29.83 "Hg10 mi
7:50 am63 °FSunny.5 mph83%29.83 "Hg10 mi
7:20 am59 °FSunny.5 mph88%29.86 "Hg10 mi
6:50 am57 °FSunny.6 mph94%29.86 "Hg10 mi
6:20 am57 °FSunny.5 mph94%29.86 "Hg10 mi
5:50 am55 °FSunny.6 mph94%29.86 "Hg10 mi
5:20 am55 °FClear.6 mph94%29.86 "Hg10 mi
4:50 am57 °FClear.5 mph88%29.89 "HgN/A
4:20 am57 °FClear.5 mph94%29.89 "HgN/A
3:50 am57 °FClear.6 mph94%29.89 "HgN/A
3:20 am57 °FClear.6 mph94%29.89 "HgN/A
2:20 am59 °FClear.3 mph88%29.92 "HgN/A
1:50 am59 °FClear.5 mph88%29.92 "HgN/A
1:20 am61 °FClear.6 mph83%29.92 "HgN/A
12:50 am61 °FClear.6 mph83%29.92 "HgN/A
12:20 am63 °FClear.6 mph77%29.92 "HgN/A
11:50 pm
Fri, Jul 23
63 °FClear.5 mph77%29.95 "HgN/A
11:20 pm63 °FClear.5 mph77%29.95 "HgN/A
10:50 pm64 °FClear.5 mph73%29.95 "Hg10 mi
10:20 pm66 °FClear.3 mph64%29.95 "Hg10 mi
9:50 pm68 °FClear.5 mph56%29.95 "Hg10 mi
9:20 pm70 °FSunny.6 mph53%29.95 "Hg10 mi
8:50 pm72 °FSunny.6 mph50%29.95 "Hg10 mi
8:20 pm73 °FSunny.7 mph47%29.95 "Hg10 mi
7:50 pm75 °FPassing clouds.6 mph44%29.95 "HgN/A
7:20 pm75 °FPassing clouds.7 mph44%29.95 "HgN/A
6:50 pm75 °FPassing clouds.5 mph44%29.98 "HgN/A
6:20 pm77 °FPassing clouds.6 mph42%29.98 "HgN/A
5:50 pm77 °FSunny.6 mph42%29.98 "Hg10 mi
5:20 pm75 °FSunny.5 mph47%29.98 "Hg10 mi
4:50 pm75 °FPassing clouds.5 mph44%30.01 "HgN/A
4:20 pm75 °FPassing clouds.6 mph50%30.01 "HgN/A
3:50 pm73 °FPassing clouds.6 mph50%30.01 "HgN/A
3:20 pm73 °FSunny.5 mph50%30.01 "Hg10 mi
2:50 pm72 °FSunny.3 mph57%30.01 "Hg10 mi
2:20 pm73 °FPassing clouds.5 mph50%30.04 "HgN/A
1:50 pm72 °FPassing clouds.5 mph57%30.04 "HgN/A
1:20 pm72 °FPassing clouds.6 mph61%30.07 "HgN/A
12:50 pm70 °FSunny.3 mph60%30.07 "Hg10 mi
12:20 pm70 °FSunny.5 mph60%30.07 "Hg10 mi
11:50 am68 °FPassing clouds.5 mph64%30.07 "HgN/A
11:20 am66 °FSunny.5 mph64%30.09 "Hg10 mi
Weather by CustomWeather, © 2021

See weather overview